createdAt,value
2018-11-22T00:00:23.200Z,21.83
2018-11-22T00:03:12.599Z,23.67
2018-11-22T00:06:01.970Z,22.37
2018-11-22T00:08:50.790Z,22.50
2018-11-22T00:11:40.080Z,21.50
2018-11-22T00:14:29.152Z,23.43
2018-11-22T00:17:18.598Z,21.83
2018-11-22T00:20:08.406Z,22.60
2018-11-22T00:22:57.459Z,22.17
2018-11-22T00:25:46.266Z,23.53
2018-11-22T00:28:35.537Z,21.70
2018-11-22T00:31:24.977Z,21.67
2018-11-22T00:34:13.816Z,23.30
2018-11-22T00:37:03.218Z,23.27
2018-11-22T00:39:52.506Z,21.23
2018-11-22T00:42:42.240Z,20.97
2018-11-22T00:45:31.546Z,22.07
2018-11-22T00:48:20.599Z,22.10
2018-11-22T00:51:09.398Z,22.90
2018-11-22T00:53:58.890Z,22.97
2018-11-22T00:56:48.132Z,23.80
2018-11-22T00:59:36.912Z,23.87
2018-11-22T01:02:25.945Z,23.47
2018-11-22T01:05:16.309Z,23.07
2018-11-22T01:08:05.521Z,25.07
2018-11-22T01:10:54.371Z,22.80
2018-11-22T01:13:43.863Z,23.77
2018-11-22T01:16:32.884Z,24.53
2018-11-22T01:19:22.297Z,25.27
2018-11-22T01:22:11.324Z,24.50
2018-11-22T01:25:00.424Z,23.27
2018-11-22T01:27:49.942Z,24.03
2018-11-22T01:30:39.838Z,21.70
2018-11-22T01:33:28.881Z,20.53
2018-11-22T01:36:17.971Z,20.87
2018-11-22T01:39:09.138Z,19.90
2018-11-22T01:41:58.515Z,21.10
2018-11-22T01:44:47.893Z,21.33
2018-11-22T01:47:37.146Z,21.33
2018-11-22T01:50:26.339Z,21.77
2018-11-22T01:53:15.137Z,21.30
2018-11-22T01:56:04.421Z,21.30
2018-11-22T01:58:53.659Z,22.37
2018-11-22T02:01:42.716Z,21.43
2018-11-22T02:04:31.514Z,21.90
2018-11-22T02:07:20.929Z,21.70
2018-11-22T02:10:12.076Z,20.70
2018-11-22T02:13:01.708Z,20.33
2018-11-22T02:15:50.951Z,21.23
2018-11-22T02:18:40.238Z,20.47
2018-11-22T02:21:29.749Z,20.70
2018-11-22T02:24:18.556Z,20.30
2018-11-22T02:27:07.699Z,21.07
2018-11-22T02:29:56.903Z,20.87
2018-11-22T02:32:47.293Z,20.90
2018-11-22T02:35:36.714Z,21.00
2018-11-22T02:38:25.580Z,21.10
2018-11-22T02:41:14.414Z,20.87
2018-11-22T02:44:03.262Z,21.03
2018-11-22T02:46:52.062Z,21.77
2018-11-22T02:49:41.237Z,21.37
2018-11-22T02:52:30.073Z,20.83
2018-11-22T02:55:18.880Z,19.63
2018-11-22T02:58:07.981Z,20.43
2018-11-22T03:00:56.771Z,21.30
2018-11-22T03:03:45.589Z,21.40
2018-11-22T03:06:34.400Z,21.57
2018-11-22T03:09:23.865Z,22.10
2018-11-22T03:12:12.968Z,21.67
2018-11-22T03:15:02.460Z,21.53
2018-11-22T03:17:51.390Z,21.27
2018-11-22T03:20:40.625Z,22.80
2018-11-22T03:23:29.760Z,22.83
2018-11-22T03:26:18.868Z,21.50
2018-11-22T03:29:07.698Z,23.03
2018-11-22T03:31:56.820Z,23.57
2018-11-22T03:34:45.928Z,22.83
2018-11-22T03:37:54.293Z,22.97
2018-11-22T03:40:43.389Z,22.50
2018-11-22T03:43:32.737Z,22.07
2018-11-22T03:46:21.833Z,22.13
2018-11-22T03:49:11.009Z,22.83
2018-11-22T03:51:59.857Z,23.47
2018-11-22T03:54:48.985Z,22.43
2018-11-22T03:57:38.618Z,22.87
2018-11-22T04:00:28.987Z,22.30
2018-11-22T04:03:18.095Z,21.93
2018-11-22T04:06:07.033Z,23.00
2018-11-22T04:08:56.145Z,22.40
2018-11-22T04:11:45.186Z,22.20
2018-11-22T04:14:34.329Z,22.23
2018-11-22T04:17:23.672Z,23.40
2018-11-22T04:20:14.405Z,23.63
2018-11-22T04:23:03.222Z,22.50
2018-11-22T04:25:52.345Z,21.97
2018-11-22T04:28:41.212Z,23.63
2018-11-22T04:31:30.384Z,24.23
2018-11-22T04:34:19.213Z,22.33
2018-11-22T04:37:08.150Z,22.73
2018-11-22T04:39:57.258Z,23.60
2018-11-22T04:42:46.728Z,22.53
2018-11-22T04:45:35.682Z,22.50
2018-11-22T04:48:24.637Z,23.17
2018-11-22T04:51:32.815Z,23.33
2018-11-22T04:54:21.710Z,23.30
2018-11-22T04:57:10.509Z,23.07
2018-11-22T04:59:59.396Z,23.33
2018-11-22T05:02:48.342Z,23.93
2018-11-22T05:05:37.553Z,24.13
2018-11-22T05:08:26.633Z,25.23
2018-11-22T05:11:15.584Z,26.07
2018-11-22T05:14:04.818Z,26.10
2018-11-22T05:16:54.169Z,26.83
2018-11-22T05:19:43.033Z,27.90
2018-11-22T05:22:32.132Z,29.00
2018-11-22T05:25:21.003Z,27.73
2018-11-22T05:28:10.380Z,28.63
2018-11-22T05:31:19.305Z,29.97
2018-11-22T05:34:08.395Z,29.13
2018-11-22T05:36:57.276Z,31.07
2018-11-22T05:39:47.105Z,33.73
2018-11-22T05:42:35.890Z,35.40
2018-11-22T05:45:26.373Z,33.47
2018-11-22T05:48:16.235Z,32.87
2018-11-22T05:51:05.197Z,33.20
2018-11-22T05:53:54.193Z,32.47
2018-11-22T05:56:43.324Z,32.00
2018-11-22T05:59:32.640Z,31.83
2018-11-22T06:02:21.826Z,33.27
2018-11-22T06:05:12.019Z,33.30
2018-11-22T06:08:01.252Z,32.77
2018-11-22T06:10:50.404Z,31.43
2018-11-22T06:13:39.516Z,32.03
2018-11-22T06:16:48.240Z,33.00
2018-11-22T06:19:37.557Z,32.03
2018-11-22T06:22:27.010Z,31.30
2018-11-22T06:25:16.904Z,31.73
2018-11-22T06:28:25.400Z,31.33
2018-11-22T06:31:14.529Z,31.17
2018-11-22T06:34:03.614Z,33.33
2018-11-22T06:36:52.676Z,32.27
2018-11-22T06:39:42.099Z,31.63
2018-11-22T06:42:32.265Z,30.57
2018-11-22T12:17:18.409Z,23.67
2018-11-22T12:19:53.275Z,24.50
2018-11-22T12:22:27.990Z,24.90
2018-11-22T12:25:02.652Z,24.63
2018-11-22T12:27:37.684Z,22.43
2018-11-22T12:30:15.005Z,23.60
2018-11-22T12:32:55.392Z,21.73
2018-11-22T12:35:35.361Z,23.53
2018-11-22T12:38:15.142Z,22.70
2018-11-22T12:40:49.726Z,22.13
2018-11-22T12:43:24.590Z,22.47
2018-11-22T12:46:00.355Z,21.80
2018-11-22T12:48:34.853Z,22.43
2018-11-22T12:51:09.539Z,23.37
2018-11-22T12:53:44.126Z,22.40
2018-11-22T12:56:19.018Z,21.50
2018-11-22T12:58:53.632Z,24.03
2018-11-22T13:01:28.235Z,23.63
2018-11-22T13:04:02.845Z,23.53
2018-11-22T13:06:37.917Z,24.03
2018-11-22T13:09:12.433Z,24.50
2018-11-22T13:11:47.692Z,22.70
2018-11-22T13:14:22.190Z,23.90
2018-11-22T13:16:56.824Z,21.90
2018-11-22T13:19:31.344Z,24.60
2018-11-22T13:22:06.854Z,22.40
2018-11-22T13:24:41.398Z,21.70
2018-11-22T13:27:15.969Z,22.80
2018-11-22T13:29:50.798Z,21.53
2018-11-22T13:32:25.318Z,22.40
2018-11-22T13:34:59.902Z,21.87
2018-11-22T13:37:34.791Z,22.07
2018-11-22T13:40:10.754Z,21.63
2018-11-22T13:42:46.416Z,21.30
2018-11-22T13:45:23.621Z,21.53
2018-11-22T13:47:59.262Z,19.57
2018-11-22T13:50:35.649Z,20.60
2018-11-22T13:53:09.667Z,20.80
2018-11-22T13:55:44.271Z,21.17
2018-11-22T13:58:19.298Z,21.30
2018-11-22T14:00:54.025Z,21.23
2018-11-22T14:03:28.617Z,21.73
2018-11-22T14:06:03.473Z,21.90
2018-11-22T14:08:38.453Z,22.10
2018-11-22T14:11:15.242Z,22.40
2018-11-22T14:13:48.673Z,22.17
2018-11-22T14:16:23.329Z,21.67
2018-11-22T14:18:58.256Z,21.17
2018-11-22T14:21:33.228Z,22.50
2018-11-22T14:24:08.057Z,21.80
2018-11-22T14:26:42.568Z,22.87
2018-11-22T14:29:17.761Z,22.10
2018-11-22T14:31:52.769Z,20.97
2018-11-22T14:34:27.500Z,21.37
2018-11-22T14:37:02.092Z,22.13
2018-11-22T14:39:37.663Z,22.23
2018-11-22T14:42:12.775Z,22.00
2018-11-22T14:44:47.493Z,23.07
2018-11-22T14:47:21.986Z,23.30
2018-11-22T14:49:56.453Z,22.30
2018-11-22T14:52:31.401Z,22.77
2018-11-22T14:55:10.047Z,22.13
2018-11-22T14:57:44.749Z,22.80
2018-11-22T15:00:19.418Z,22.47
2018-11-22T15:02:53.913Z,22.77
2018-11-22T15:05:28.725Z,21.37
2018-11-22T15:08:03.608Z,21.73
2018-11-22T15:10:38.231Z,22.07
2018-11-22T15:13:12.981Z,21.90
2018-11-22T15:15:47.619Z,21.90
2018-11-22T15:18:22.245Z,23.70
2018-11-22T15:21:01.019Z,22.03
2018-11-22T15:23:31.257Z,24.07
2018-11-22T15:26:05.945Z,22.70
2018-11-22T15:28:40.502Z,22.87
2018-11-22T15:31:15.264Z,23.37
2018-11-22T15:33:49.710Z,22.90
2018-11-22T15:36:24.272Z,23.53
2018-11-22T15:38:59.357Z,24.30
2018-11-22T15:41:34.229Z,23.53
2018-11-22T15:44:09.191Z,24.03
2018-11-22T15:46:43.969Z,25.13
2018-11-22T15:49:18.757Z,25.00
2018-11-22T15:51:53.417Z,25.13
2018-11-22T15:54:28.187Z,25.90
2018-11-22T15:57:03.304Z,24.23
2018-11-22T15:59:38.062Z,24.57
2018-11-22T16:02:12.729Z,25.93
2018-11-22T16:04:48.050Z,26.33
2018-11-22T16:07:23.489Z,24.67
2018-11-22T16:09:58.371Z,25.60
2018-11-22T16:12:33.431Z,25.20
2018-11-22T16:15:14.897Z,23.90
2018-11-22T16:17:50.244Z,25.97
2018-11-22T16:20:24.989Z,26.83
2018-11-22T16:22:59.444Z,27.33
2018-11-22T16:25:34.638Z,28.47
2018-11-22T16:28:09.347Z,27.87
2018-11-22T16:30:44.830Z,27.53
2018-11-22T16:33:20.152Z,28.00
2018-11-22T16:35:56.448Z,28.30
2018-11-22T16:38:32.240Z,28.80
2018-11-22T16:41:06.177Z,29.17
2018-11-22T16:43:41.896Z,28.60
2018-11-22T16:46:18.266Z,29.47
2018-11-22T16:48:53.302Z,30.30
2018-11-22T16:51:28.249Z,30.03
2018-11-22T16:54:02.946Z,29.67
2018-11-22T16:56:37.815Z,31.97
2018-11-22T16:59:12.966Z,29.93
2018-11-22T17:01:48.145Z,29.53
2018-11-22T17:04:22.991Z,30.70
2018-11-22T17:06:58.277Z,31.57
2018-11-22T17:09:32.953Z,31.77
2018-11-22T17:12:08.386Z,32.10
2018-11-22T17:14:43.449Z,32.23
2018-11-22T17:17:18.795Z,30.97
2018-11-22T17:19:59.282Z,31.90
2018-11-22T17:22:34.529Z,31.33
2018-11-22T17:25:13.640Z,31.93
2018-11-22T17:27:49.730Z,31.77
2018-11-22T17:30:26.146Z,32.57
2018-11-22T17:33:01.069Z,34.43
2018-11-22T17:35:36.358Z,33.83
2018-11-22T17:38:12.131Z,36.60
2018-11-22T17:40:49.441Z,33.57
2018-11-22T17:43:24.836Z,33.00
2018-11-22T17:45:59.884Z,32.27
2018-11-22T17:48:34.669Z,32.83
2018-11-22T17:51:09.341Z,32.93
2018-11-22T17:53:43.822Z,33.93
2018-11-22T17:56:19.586Z,32.27
2018-11-22T17:58:54.227Z,33.93
2018-11-22T18:01:28.938Z,32.33
2018-11-22T18:04:03.659Z,31.13
2018-11-22T18:06:38.830Z,32.97
2018-11-22T18:09:13.966Z,34.47
2018-11-22T18:11:48.610Z,32.17
2018-11-22T18:14:23.507Z,31.47
2018-11-22T18:16:58.305Z,32.33
2018-11-22T18:19:33.663Z,32.17
2018-11-22T18:22:10.094Z,30.40
2018-11-22T18:24:47.594Z,31.40
2018-11-22T18:27:22.274Z,31.20
2018-11-22T18:29:56.818Z,32.20
2018-11-22T18:32:36.445Z,31.43
2018-11-22T18:35:12.709Z,31.73
2018-11-22T18:37:47.509Z,31.67
2018-11-22T18:40:23.838Z,29.77
2018-11-22T18:42:59.965Z,30.63
2018-11-22T18:45:37.463Z,32.07
2018-11-22T18:48:14.888Z,30.20
2018-11-22T18:50:49.703Z,32.17
2018-11-22T18:53:24.748Z,29.97
2018-11-22T18:55:59.429Z,29.97
2018-11-22T18:58:34.101Z,29.83
2018-11-22T19:01:10.149Z,29.73
2018-11-22T19:03:44.833Z,30.63
2018-11-22T19:06:21.753Z,29.57
2018-11-22T19:11:36.989Z,29.73
2018-11-22T19:14:30.875Z,31.17
2018-11-22T19:17:05.723Z,29.63
2018-11-22T19:19:40.310Z,30.53
2018-11-22T19:22:16.665Z,30.53
2018-11-22T19:24:51.838Z,30.53
2018-11-22T19:27:26.557Z,30.97
2018-11-22T19:30:01.719Z,30.50
2018-11-22T19:32:36.414Z,29.30
2018-11-22T19:35:12.203Z,27.33
2018-11-22T19:37:47.142Z,28.33
2018-11-22T19:40:24.661Z,30.67
2018-11-22T19:43:05.687Z,29.37
2018-11-22T19:45:43.723Z,26.93
2018-11-22T19:48:18.332Z,28.57
2018-11-22T19:50:52.966Z,27.43
2018-11-22T19:53:27.502Z,26.70
2018-11-22T19:56:02.449Z,24.03
2018-11-22T19:58:37.121Z,25.23
2018-11-22T20:01:11.811Z,24.90
2018-11-22T20:03:46.771Z,25.47
2018-11-22T20:06:21.240Z,24.47
2018-11-22T20:08:55.757Z,24.77
2018-11-22T20:11:30.517Z,24.80
2018-11-22T20:14:06.474Z,27.17
2018-11-22T20:16:41.253Z,25.73
2018-11-22T20:19:15.814Z,24.57
2018-11-22T20:21:50.266Z,24.50
2018-11-22T20:24:24.823Z,25.53
2018-11-22T20:26:59.346Z,24.43
2018-11-22T20:29:34.182Z,25.70
2018-11-22T20:32:08.801Z,24.97
2018-11-22T20:34:45.592Z,26.00
2018-11-22T20:37:20.493Z,25.30
2018-11-22T20:39:58.024Z,26.27
2018-11-22T20:42:32.622Z,27.93
2018-11-22T20:45:09.509Z,25.67
2018-11-22T20:47:45.008Z,28.13
2018-11-22T20:50:20.934Z,26.20
2018-11-22T20:52:55.647Z,27.93
2018-11-22T20:55:31.905Z,26.10
2018-11-22T20:58:07.399Z,26.53
2018-11-22T21:00:42.518Z,28.67
2018-11-22T21:03:17.213Z,24.40
2018-11-22T21:05:58.155Z,25.77
2018-11-22T21:08:33.222Z,26.70
2018-11-22T21:11:08.601Z,25.40
2018-11-22T21:13:43.203Z,25.40
2018-11-22T21:16:25.613Z,23.73
2018-11-22T21:19:00.374Z,23.57
2018-11-22T21:21:35.364Z,24.77
2018-11-22T21:24:10.102Z,24.07
2018-11-22T21:26:46.030Z,24.67
2018-11-22T21:29:20.706Z,23.70
2018-11-22T21:31:55.416Z,24.07
2018-11-22T21:34:30.150Z,24.43
2018-11-22T21:37:05.298Z,23.67
2018-11-22T21:39:39.754Z,23.27
2018-11-22T21:42:14.330Z,24.33
2018-11-22T21:44:52.309Z,25.30
2018-11-22T21:47:29.374Z,25.17
2018-11-22T21:50:08.745Z,24.13
2018-11-22T21:52:43.686Z,24.30
2018-11-22T21:55:21.274Z,22.77
2018-11-22T21:57:57.325Z,24.77
2018-11-22T22:00:38.315Z,23.70
2018-11-22T22:03:12.820Z,23.80
2018-11-22T22:05:47.502Z,23.40
2018-11-22T22:08:23.146Z,25.00
2018-11-22T22:10:58.093Z,25.63
2018-11-22T22:13:32.647Z,25.90
2018-11-22T22:16:07.634Z,27.47
2018-11-22T22:18:42.195Z,26.03
2018-11-22T22:21:16.622Z,26.27
2018-11-22T22:23:51.745Z,30.37
2018-11-22T22:26:26.591Z,27.47
2018-11-22T22:29:01.378Z,26.07
2018-11-22T22:31:35.854Z,25.97
2018-11-22T22:34:10.337Z,24.63
2018-11-22T22:36:45.169Z,24.97
2018-11-22T22:39:19.659Z,25.50
2018-11-22T22:41:54.566Z,24.67
2018-11-22T22:44:29.028Z,24.80
2018-11-22T22:47:03.605Z,25.17
2018-11-22T22:49:38.292Z,24.40
2018-11-22T22:52:13.454Z,25.47
2018-11-22T22:54:47.921Z,24.63
2018-11-22T22:57:22.787Z,25.17
2018-11-22T22:59:57.388Z,26.63
2018-11-22T23:02:32.192Z,24.43
2018-11-22T23:05:07.006Z,23.93
2018-11-22T23:07:42.090Z,25.20
2018-11-22T23:10:17.373Z,23.43
2018-11-22T23:12:52.899Z,25.93
2018-11-22T23:15:28.769Z,26.10
2018-11-22T23:18:03.780Z,23.67
2018-11-22T23:20:39.281Z,22.90
2018-11-22T23:23:14.008Z,24.07
2018-11-22T23:25:49.707Z,24.17
2018-11-22T23:28:24.159Z,26.00
2018-11-22T23:30:58.637Z,24.80
2018-11-22T23:33:33.463Z,24.40
2018-11-22T23:36:07.947Z,23.83
2018-11-22T23:38:42.685Z,23.80
2018-11-22T23:41:17.533Z,23.90
2018-11-22T23:43:52.156Z,25.37
2018-11-22T23:46:27.103Z,25.00
2018-11-22T23:49:01.685Z,23.90
2018-11-22T23:51:36.503Z,22.57
2018-11-22T23:54:11.175Z,25.40
2018-11-22T23:56:46.086Z,24.80
2018-11-22T23:59:20.886Z,23.70
